createdAt,value
2018-11-29T00:01:19.385Z,22.93
2018-11-29T00:03:49.692Z,24.60
2018-11-29T00:06:19.969Z,23.50
2018-11-29T00:08:50.261Z,25.77
2018-11-29T00:11:20.594Z,26.97
2018-11-29T00:13:50.991Z,29.17
2018-11-29T00:16:21.296Z,29.20
2018-11-29T00:18:51.577Z,25.97
2018-11-29T00:21:21.835Z,24.27
2018-11-29T00:23:52.129Z,21.40
2018-11-29T00:26:22.427Z,21.47
2018-11-29T00:28:52.675Z,23.27
2018-11-29T00:31:22.994Z,23.77
2018-11-29T00:33:53.294Z,22.73
2018-11-29T00:36:23.596Z,22.40
2018-11-29T00:38:53.883Z,21.43
2018-11-29T00:41:24.138Z,21.10
2018-11-29T00:43:54.406Z,21.17
2018-11-29T00:46:24.753Z,19.73
2018-11-29T00:48:54.988Z,20.87
2018-11-29T00:51:25.283Z,19.93
2018-11-29T00:53:55.548Z,19.50
2018-11-29T00:56:25.848Z,18.97
2018-11-29T00:58:56.113Z,17.30
2018-11-29T01:01:26.398Z,18.10
2018-11-29T01:03:56.647Z,16.73
2018-11-29T01:06:26.944Z,18.10
2018-11-29T01:08:57.287Z,19.00
2018-11-29T01:11:27.584Z,18.37
2018-11-29T01:13:57.849Z,19.10
2018-11-29T01:16:28.129Z,19.27
2018-11-29T01:18:58.431Z,18.80
2018-11-29T01:21:28.746Z,18.47
2018-11-29T01:23:59.009Z,18.60
2018-11-29T01:26:29.319Z,18.30
2018-11-29T01:28:59.578Z,21.10
2018-11-29T01:31:29.887Z,19.77
2018-11-29T01:34:00.248Z,20.93
2018-11-29T01:36:30.574Z,20.73
2018-11-29T01:39:00.889Z,17.70
2018-11-29T01:41:31.171Z,18.77
2018-11-29T01:44:01.198Z,18.60
2018-11-29T01:46:31.347Z,19.90
2018-11-29T01:49:01.615Z,22.80
2018-11-29T01:51:31.919Z,18.17
2018-11-29T01:54:02.239Z,19.27
2018-11-29T01:56:33.344Z,20.50
2018-11-29T01:59:03.663Z,19.73
2018-11-29T02:01:33.912Z,17.20
2018-11-29T02:04:04.242Z,18.70
2018-11-29T02:06:34.522Z,17.47
2018-11-29T02:09:07.098Z,18.77
2018-11-29T02:11:37.436Z,17.93
2018-11-29T02:14:07.764Z,17.60
2018-11-29T02:16:37.995Z,17.77
2018-11-29T02:19:08.319Z,18.87
2018-11-29T02:21:38.565Z,16.00
2018-11-29T02:24:08.852Z,17.33
2018-11-29T02:26:39.116Z,17.17
2018-11-29T02:29:09.390Z,15.73
2018-11-29T02:31:39.721Z,17.57
2018-11-29T02:34:09.965Z,17.47
2018-11-29T02:36:40.290Z,17.80
2018-11-29T02:39:10.535Z,16.67
2018-11-29T02:41:40.847Z,15.00
2018-11-29T02:44:11.090Z,14.33
2018-11-29T02:46:41.383Z,12.73
2018-11-29T02:49:11.615Z,13.93
2018-11-29T02:51:41.939Z,11.90
2018-11-29T02:54:12.250Z,12.20
2018-11-29T02:56:42.546Z,12.20
2018-11-29T02:59:12.808Z,12.83
2018-11-29T03:01:43.090Z,13.00
2018-11-29T03:04:13.341Z,10.97
2018-11-29T03:06:43.598Z,12.07
2018-11-29T03:09:13.869Z,12.10
2018-11-29T03:11:44.163Z,12.23
2018-11-29T03:14:14.431Z,12.50
2018-11-29T03:16:44.683Z,11.80
2018-11-29T03:19:14.932Z,13.70
2018-11-29T03:21:45.181Z,12.67
2018-11-29T03:24:15.446Z,12.17
2018-11-29T03:26:45.718Z,11.80
2018-11-29T03:29:16.003Z,11.70
2018-11-29T03:31:46.299Z,10.93
2018-11-29T03:34:16.582Z,11.63
2018-11-29T03:36:46.817Z,10.77
2018-11-29T03:39:17.087Z,11.60
2018-11-29T03:41:47.332Z,10.80
2018-11-29T03:44:17.619Z,11.80
2018-11-29T03:46:47.919Z,10.53
2018-11-29T03:49:18.211Z,11.40
2018-11-29T03:51:48.462Z,11.50
2018-11-29T03:54:18.723Z,11.10
2018-11-29T03:56:48.975Z,10.83
2018-11-29T03:59:19.263Z,11.73
2018-11-29T04:01:49.525Z,11.00
2018-11-29T04:04:19.807Z,10.97
2018-11-29T04:06:50.083Z,11.17
2018-11-29T04:09:20.356Z,9.80
2018-11-29T04:11:50.605Z,11.27
2018-11-29T04:14:20.860Z,10.03
2018-11-29T04:16:51.143Z,10.03
2018-11-29T04:19:21.423Z,11.97
2018-11-29T04:21:51.775Z,10.10
2018-11-29T04:24:22.015Z,11.20
2018-11-29T04:26:52.283Z,11.97
2018-11-29T04:29:22.565Z,10.97
2018-11-29T04:31:52.830Z,10.50
2018-11-29T04:34:23.090Z,10.50
2018-11-29T04:36:53.440Z,9.23
2018-11-29T04:39:23.709Z,10.63
2018-11-29T04:41:53.986Z,10.70
2018-11-29T04:44:24.226Z,9.37
2018-11-29T04:46:54.519Z,8.60
2018-11-29T04:49:24.799Z,10.60
2018-11-29T04:51:55.114Z,10.03
2018-11-29T04:54:25.414Z,10.87
2018-11-29T04:56:55.730Z,9.97
2018-11-29T04:59:26.037Z,9.40
2018-11-29T05:01:56.383Z,8.70
2018-11-29T05:04:26.672Z,10.50
2018-11-29T05:06:56.971Z,9.13
2018-11-29T05:09:27.245Z,8.77
2018-11-29T05:11:57.503Z,8.77
2018-11-29T05:14:27.775Z,10.40
2018-11-29T05:16:58.012Z,8.50
2018-11-29T05:19:28.295Z,9.40
2018-11-29T05:21:58.558Z,10.07
2018-11-29T05:24:28.869Z,10.90
2018-11-29T05:26:59.135Z,9.80
2018-11-29T05:29:29.458Z,10.07
2018-11-29T05:31:59.738Z,9.07
2018-11-29T05:34:30.018Z,8.63
2018-11-29T05:37:00.354Z,8.87
2018-11-29T05:39:30.592Z,9.97
2018-11-29T05:42:00.855Z,9.40
2018-11-29T05:44:31.106Z,9.70
2018-11-29T05:47:01.386Z,8.73
2018-11-29T05:49:31.744Z,9.63
2018-11-29T05:52:02.002Z,10.27
2018-11-29T05:54:32.299Z,10.13
2018-11-29T05:57:02.523Z,8.80
2018-11-29T05:59:32.830Z,9.40
2018-11-29T06:02:03.119Z,9.77
2018-11-29T06:04:33.449Z,8.63
2018-11-29T06:07:03.727Z,8.70
2018-11-29T06:09:34.023Z,9.67
2018-11-29T06:12:05.419Z,9.40
2018-11-29T06:14:35.700Z,10.20
2018-11-29T06:17:05.990Z,9.67
2018-11-29T06:19:36.271Z,11.10
2018-11-29T06:22:06.604Z,16.10
2018-11-29T06:24:36.933Z,14.63
2018-11-29T06:27:07.278Z,11.67
2018-11-29T06:29:37.573Z,9.80
2018-11-29T06:32:07.914Z,11.27
2018-11-29T06:34:38.236Z,8.30
2018-11-29T06:37:09.610Z,10.57
2018-11-29T06:39:39.938Z,11.20
2018-11-29T06:42:10.264Z,11.33
2018-11-29T06:44:40.580Z,14.40
2018-11-29T06:47:10.882Z,13.50
2018-11-29T06:49:41.247Z,13.17
2018-11-29T06:52:11.501Z,14.30
2018-11-29T06:54:41.823Z,13.97
2018-11-29T06:57:12.155Z,14.97
2018-11-29T06:59:42.528Z,12.73
2018-11-29T07:02:12.926Z,11.60
2018-11-29T07:04:43.206Z,12.90
2018-11-29T07:07:13.464Z,10.73
2018-11-29T07:09:44.326Z,12.57
2018-11-29T07:12:14.617Z,11.47
2018-11-29T07:14:45.053Z,11.80
2018-11-29T07:17:15.343Z,12.37
2018-11-29T07:19:45.643Z,8.57
2018-11-29T07:22:15.981Z,12.20
2018-11-29T07:24:46.275Z,10.90
2018-11-29T07:27:16.614Z,9.57
2018-11-29T07:29:47.390Z,10.90
2018-11-29T07:32:22.586Z,9.90
2018-11-29T07:34:52.986Z,10.90
2018-11-29T07:37:23.270Z,10.67
2018-11-29T07:39:53.535Z,11.10
2018-11-29T07:42:23.901Z,11.40
2018-11-29T07:44:54.173Z,11.00
2018-11-29T07:47:24.504Z,10.80
2018-11-29T07:49:54.808Z,11.23
2018-11-29T07:52:25.136Z,10.07
2018-11-29T07:54:55.425Z,11.70
2018-11-29T07:57:25.723Z,10.40
2018-11-29T07:59:55.999Z,10.17
2018-11-29T08:02:26.301Z,9.23
2018-11-29T08:04:56.595Z,8.73
2018-11-29T08:07:26.843Z,9.27
2018-11-29T08:09:57.142Z,25.93
2018-11-29T08:12:27.503Z,19.33
2018-11-29T08:14:57.822Z,8.60
2018-11-29T08:17:28.082Z,6.50
2018-11-29T08:19:58.479Z,6.20
2018-11-29T08:22:28.702Z,5.70
2018-11-29T08:24:58.998Z,6.07
2018-11-29T08:27:29.275Z,6.97
2018-11-29T08:29:59.641Z,13.40
2018-11-29T08:32:29.950Z,11.80
2018-11-29T08:35:00.355Z,6.40
2018-11-29T08:37:30.620Z,5.53
2018-11-29T08:40:01.019Z,12.90
2018-11-29T08:42:31.297Z,16.30
2018-11-29T08:45:01.611Z,17.57
2018-11-29T08:47:31.927Z,14.03
2018-11-29T08:50:02.232Z,14.27
2018-11-29T08:52:32.612Z,15.53
2018-11-29T08:55:04.169Z,13.60
2018-11-29T08:57:34.414Z,11.87
2018-11-29T09:00:13.569Z,12.07
2018-11-29T09:02:43.891Z,12.30
2018-11-29T09:05:14.925Z,13.10
2018-11-29T09:07:46.779Z,13.43
2018-11-29T09:10:20.730Z,11.90
2018-11-29T09:12:51.036Z,12.80
2018-11-29T09:15:21.333Z,12.00
2018-11-29T09:17:51.623Z,12.93
2018-11-29T09:20:22.961Z,10.93
2018-11-29T09:22:53.240Z,11.03
2018-11-29T09:25:24.151Z,10.90
2018-11-29T09:27:54.398Z,9.70
2018-11-29T09:30:25.022Z,10.97
2018-11-29T09:32:55.715Z,10.13
2018-11-29T09:35:26.330Z,8.97
2018-11-29T09:37:56.558Z,9.53
2018-11-29T09:40:26.800Z,8.97
2018-11-29T09:42:57.037Z,9.20
2018-11-29T09:45:27.298Z,8.07
2018-11-29T09:47:57.846Z,8.67
2018-11-29T09:50:28.103Z,9.63
2018-11-29T09:52:58.359Z,8.40
2018-11-29T09:55:28.614Z,8.80
2018-11-29T09:57:58.891Z,9.27
2018-11-29T10:00:30.595Z,7.60
2018-11-29T10:03:07.951Z,7.20
2018-11-29T10:05:38.559Z,8.50
2018-11-29T10:08:12.129Z,8.70
2018-11-29T10:10:41.143Z,7.37
2018-11-29T10:13:11.333Z,8.13
2018-11-29T10:15:41.590Z,7.50
2018-11-29T10:18:12.538Z,15.40
2018-11-29T10:20:42.803Z,18.40
2018-11-29T10:23:13.044Z,14.50
2018-11-29T10:25:43.393Z,10.80
2018-11-29T10:28:15.667Z,9.63
2018-11-29T10:30:54.662Z,8.40
2018-11-29T10:33:24.947Z,8.40
2018-11-29T10:35:58.979Z,8.70
2018-11-29T10:38:25.488Z,8.23
2018-11-29T10:40:55.770Z,7.93
2018-11-29T10:43:27.222Z,7.20
2018-11-29T10:45:57.474Z,7.63
2018-11-29T10:48:27.738Z,7.40
2018-11-29T10:50:58.005Z,8.30
2018-11-29T10:53:28.296Z,6.90
2018-11-29T10:55:58.574Z,6.53
2018-11-29T10:58:28.812Z,6.83
2018-11-29T11:01:04.300Z,16.87
2018-11-29T11:03:34.615Z,36.63
2018-11-29T11:06:04.902Z,6.93
2018-11-29T11:08:35.129Z,6.30
2018-11-29T11:11:08.565Z,23.87
2018-11-29T11:13:39.178Z,9.30
2018-11-29T11:16:09.940Z,6.37
2018-11-29T11:18:39.727Z,5.87
2018-11-29T11:21:10.042Z,6.30
2018-11-29T11:23:40.296Z,5.50
2018-11-29T11:26:10.610Z,6.20
2018-11-29T11:28:40.922Z,5.07
2018-11-29T11:31:11.199Z,6.60
2018-11-29T11:33:41.438Z,6.00
2018-11-29T11:36:11.808Z,6.53
2018-11-29T11:38:42.172Z,5.40
2018-11-29T11:41:12.424Z,6.23
2018-11-29T11:43:42.723Z,9.00
2018-11-29T11:46:13.321Z,7.30
2018-11-29T11:48:43.580Z,8.37
2018-11-29T11:51:13.867Z,7.50
2018-11-29T11:53:44.164Z,11.00
2018-11-29T11:56:14.426Z,6.80
2018-11-29T11:58:44.713Z,8.90
2018-11-29T12:01:14.960Z,6.83
2018-11-29T12:03:45.224Z,6.20
2018-11-29T12:06:15.517Z,6.30
2018-11-29T12:08:45.789Z,6.40
2018-11-29T12:11:16.051Z,6.33
2018-11-29T12:13:46.302Z,6.40
2018-11-29T12:16:16.640Z,6.40
2018-11-29T12:18:46.878Z,6.97
2018-11-29T12:21:17.128Z,6.80
2018-11-29T12:23:47.363Z,6.47
2018-11-29T12:26:17.622Z,7.33
2018-11-29T12:28:47.858Z,11.57
2018-11-29T12:31:18.150Z,48.57
2018-11-29T12:33:48.408Z,8.07
2018-11-29T12:36:18.678Z,7.30
2018-11-29T12:38:48.929Z,7.90
2018-11-29T12:41:19.207Z,7.70
2018-11-29T12:43:49.441Z,9.07
2018-11-29T12:46:19.674Z,8.43
2018-11-29T12:48:49.917Z,8.10
2018-11-29T12:51:20.300Z,9.40
2018-11-29T12:53:50.600Z,7.27
2018-11-29T12:56:21.187Z,7.00
2018-11-29T12:58:51.500Z,7.23
2018-11-29T13:01:21.749Z,7.63
2018-11-29T13:03:52.096Z,7.27
2018-11-29T13:06:22.351Z,6.70
2018-11-29T13:09:01.741Z,7.30
2018-11-29T13:11:32.391Z,6.40
2018-11-29T13:14:02.744Z,6.40
2018-11-29T13:16:32.926Z,7.67
2018-11-29T13:19:03.191Z,6.77
2018-11-29T13:21:33.515Z,7.23
2018-11-29T13:24:03.883Z,7.70
2018-11-29T13:26:34.099Z,7.37
2018-11-29T13:29:04.374Z,6.30
2018-11-29T13:31:34.693Z,6.83
2018-11-29T13:34:04.943Z,6.47
2018-11-29T13:36:35.260Z,7.43
2018-11-29T13:39:09.376Z,7.40
2018-11-29T13:41:39.005Z,7.77
2018-11-29T13:44:09.370Z,7.70
2018-11-29T13:46:39.710Z,7.60
2018-11-29T13:49:09.965Z,7.73
2018-11-29T13:51:40.227Z,7.07
2018-11-29T13:54:10.490Z,7.67
2018-11-29T13:56:40.790Z,8.57
2018-11-29T13:59:11.077Z,8.20
2018-11-29T14:01:41.345Z,8.10
2018-11-29T14:04:11.574Z,7.03
2018-11-29T14:06:41.873Z,8.27
2018-11-29T14:09:12.170Z,8.90
2018-11-29T14:11:42.451Z,8.03
2018-11-29T14:14:12.677Z,9.70
2018-11-29T14:16:42.974Z,9.10
2018-11-29T14:19:13.252Z,8.77
2018-11-29T14:21:43.553Z,9.33
2018-11-29T14:24:13.827Z,8.17
2018-11-29T14:26:44.199Z,8.80
2018-11-29T14:29:14.438Z,9.07
2018-11-29T14:31:44.717Z,7.83
2018-11-29T14:34:14.987Z,9.00
2018-11-29T14:36:45.231Z,7.97
2018-11-29T14:39:15.459Z,9.00
2018-11-29T14:41:45.734Z,10.10
2018-11-29T14:44:16.100Z,8.90
2018-11-29T14:46:46.412Z,10.30
2018-11-29T14:49:16.701Z,9.70
2018-11-29T14:51:48.108Z,8.03
2018-11-29T14:54:17.194Z,9.80
2018-11-29T14:56:47.512Z,8.40
2018-11-29T14:59:17.787Z,10.03
2018-11-29T15:01:48.035Z,9.47
2018-11-29T15:04:18.307Z,8.87
2018-11-29T15:06:48.553Z,8.97
2018-11-29T15:09:18.847Z,8.30
2018-11-29T15:11:49.167Z,9.13
2018-11-29T15:14:19.451Z,8.63
2018-11-29T15:16:49.670Z,16.37
2018-11-29T15:19:19.940Z,14.70
2018-11-29T15:21:50.241Z,9.37
2018-11-29T15:24:20.491Z,7.93
2018-11-29T15:26:50.794Z,7.70
2018-11-29T15:29:21.022Z,8.50
2018-11-29T15:31:51.307Z,8.73
2018-11-29T15:34:21.546Z,7.53
2018-11-29T15:36:51.793Z,7.90
2018-11-29T15:39:22.082Z,7.60
2018-11-29T15:41:52.286Z,7.80
2018-11-29T15:44:22.539Z,10.90
2018-11-29T15:46:52.835Z,8.57
2018-11-29T15:49:23.138Z,10.37
2018-11-29T15:51:53.398Z,9.63
2018-11-29T15:54:23.751Z,9.10
2018-11-29T15:56:54.066Z,8.30
2018-11-29T15:59:24.316Z,8.80
2018-11-29T16:01:54.621Z,8.00
2018-11-29T16:04:24.910Z,8.27
2018-11-29T16:06:55.234Z,7.87
2018-11-29T16:09:25.529Z,7.90
2018-11-29T16:11:55.884Z,9.60
2018-11-29T16:14:26.304Z,8.47
2018-11-29T16:16:56.593Z,10.07
2018-11-29T16:19:26.918Z,13.23
2018-11-29T16:21:57.193Z,23.03
2018-11-29T16:24:27.471Z,21.80
2018-11-29T16:26:57.754Z,24.30
2018-11-29T16:29:28.088Z,34.93
2018-11-29T16:31:58.420Z,10.17
2018-11-29T16:34:28.658Z,8.30
2018-11-29T16:36:58.947Z,8.47
2018-11-29T16:39:29.224Z,11.00
2018-11-29T16:41:59.548Z,8.90
2018-11-29T16:44:29.828Z,9.60
2018-11-29T16:47:00.079Z,9.80
2018-11-29T16:49:30.303Z,9.57
2018-11-29T16:52:00.572Z,9.30
2018-11-29T16:54:30.838Z,8.90
2018-11-29T16:57:01.157Z,36.57
2018-11-29T16:59:31.785Z,17.40
2018-11-29T17:02:02.079Z,10.00
2018-11-29T17:04:32.339Z,10.60
2018-11-29T17:07:02.619Z,10.27
2018-11-29T17:09:32.849Z,10.37
2018-11-29T17:12:03.142Z,10.17
2018-11-29T17:14:34.338Z,10.80
2018-11-29T17:17:04.680Z,10.07
2018-11-29T17:19:34.942Z,10.43
2018-11-29T17:22:05.426Z,11.80
2018-11-29T17:24:35.661Z,10.73
2018-11-29T17:27:06.296Z,9.77
2018-11-29T17:29:36.593Z,10.57
2018-11-29T17:32:07.205Z,11.77
2018-11-29T17:34:37.491Z,11.37
2018-11-29T17:37:07.813Z,11.93
2018-11-29T17:39:38.090Z,11.77
2018-11-29T17:42:08.595Z,12.43
2018-11-29T17:44:38.854Z,12.10
2018-11-29T17:47:09.130Z,12.37
2018-11-29T17:49:39.457Z,11.47
2018-11-29T17:52:09.688Z,11.70
2018-11-29T17:54:39.975Z,12.63
2018-11-29T17:57:10.265Z,13.20
2018-11-29T17:59:40.872Z,12.70
2018-11-29T18:02:11.138Z,11.43
2018-11-29T18:04:41.396Z,11.40
2018-11-29T18:07:11.658Z,11.33
2018-11-29T18:09:41.992Z,13.50
2018-11-29T18:12:12.276Z,12.00
2018-11-29T18:14:42.544Z,11.47
2018-11-29T18:17:12.807Z,11.63
2018-11-29T18:19:43.140Z,11.77
2018-11-29T18:22:13.437Z,12.30
2018-11-29T18:24:43.709Z,12.30
2018-11-29T18:27:14.012Z,11.43
2018-11-29T18:29:44.344Z,11.40
2018-11-29T18:32:14.677Z,11.47
2018-11-29T18:34:44.955Z,13.63
2018-11-29T18:37:15.274Z,11.40
2018-11-29T18:39:45.610Z,12.27
2018-11-29T18:42:15.942Z,11.80
2018-11-29T18:44:46.240Z,12.10
2018-11-29T18:47:16.505Z,11.70
2018-11-29T18:49:46.769Z,11.40
2018-11-29T18:52:17.079Z,25.27
2018-11-29T18:54:47.385Z,19.90
2018-11-29T18:57:17.622Z,11.80
2018-11-29T18:59:47.971Z,11.40
2018-11-29T19:02:18.202Z,12.50
2018-11-29T19:04:48.495Z,12.47
2018-11-29T19:07:18.785Z,13.13
2018-11-29T19:09:49.149Z,12.60
2018-11-29T19:12:19.453Z,12.90
2018-11-29T19:14:49.769Z,12.60
2018-11-29T19:17:24.977Z,14.47
2018-11-29T19:19:50.368Z,15.90
2018-11-29T19:22:20.660Z,14.97
2018-11-29T19:24:50.909Z,13.20
2018-11-29T19:27:22.087Z,13.67
2018-11-29T19:29:52.403Z,13.87
2018-11-29T19:32:22.678Z,13.80
2018-11-29T19:34:52.979Z,13.67
2018-11-29T19:37:23.737Z,12.83
2018-11-29T19:39:54.023Z,13.00
2018-11-29T19:42:24.278Z,15.53
2018-11-29T19:44:54.598Z,13.90
2018-11-29T19:47:24.930Z,14.10
2018-11-29T19:49:55.228Z,15.30
2018-11-29T19:52:25.468Z,14.27
2018-11-29T19:54:55.808Z,13.23
2018-11-29T19:57:26.084Z,13.53
2018-11-29T19:59:56.372Z,13.30
2018-11-29T20:02:26.668Z,12.17
2018-11-29T20:04:58.983Z,13.93
2018-11-29T20:07:29.210Z,14.63
2018-11-29T20:09:59.522Z,14.30
2018-11-29T20:12:29.840Z,12.90
2018-11-29T20:15:00.108Z,13.53
2018-11-29T20:17:30.403Z,14.40
2018-11-29T20:20:00.652Z,13.80
2018-11-29T20:22:30.927Z,14.20
2018-11-29T20:25:02.244Z,14.00
2018-11-29T20:27:33.556Z,14.50
2018-11-29T20:30:03.827Z,14.33
2018-11-29T20:32:34.136Z,13.33
2018-11-29T20:35:04.840Z,14.17
2018-11-29T20:37:35.180Z,13.87
2018-11-29T20:40:23.014Z,14.87
2018-11-29T20:42:55.090Z,14.40
2018-11-29T20:45:33.450Z,14.37
2018-11-29T20:48:10.312Z,14.83
2018-11-29T20:50:40.635Z,16.33
2018-11-29T20:53:12.819Z,14.97
2018-11-29T20:55:43.098Z,15.17
2018-11-29T20:58:13.395Z,15.07
2018-11-29T21:00:43.679Z,17.90
2018-11-29T21:03:13.983Z,17.00
2018-11-29T21:05:44.636Z,16.03
2018-11-29T21:08:14.942Z,16.80
2018-11-29T21:10:45.199Z,15.60
2018-11-29T21:13:15.537Z,16.63
2018-11-29T21:15:45.797Z,15.53
2018-11-29T21:18:16.679Z,18.60
2018-11-29T21:20:46.990Z,17.10
2018-11-29T21:23:18.535Z,17.47
2018-11-29T21:25:48.805Z,21.60
2018-11-29T21:28:19.091Z,19.67
2018-11-29T21:30:49.362Z,14.97
2018-11-29T21:33:19.607Z,13.40
2018-11-29T21:35:49.886Z,13.30
2018-11-29T21:38:21.904Z,11.83
2018-11-29T21:41:00.665Z,11.83
2018-11-29T21:43:30.926Z,11.60
2018-11-29T21:46:01.212Z,13.57
2018-11-29T21:48:31.611Z,12.90
2018-11-29T21:51:01.839Z,12.57
2018-11-29T21:53:32.155Z,14.23
2018-11-29T21:56:02.413Z,12.50
2018-11-29T21:58:32.721Z,13.13
2018-11-29T22:01:02.966Z,12.00
2018-11-29T22:03:33.255Z,13.03
2018-11-29T22:06:03.487Z,13.40
2018-11-29T22:08:33.747Z,12.57
2018-11-29T22:11:04.035Z,11.70
2018-11-29T22:13:34.280Z,13.40
2018-11-29T22:16:04.579Z,12.47
2018-11-29T22:18:34.799Z,11.97
2018-11-29T22:21:06.623Z,13.37
2018-11-29T22:23:39.078Z,13.47
2018-11-29T22:26:12.063Z,15.17
2018-11-29T22:28:43.049Z,14.53
2018-11-29T22:31:13.306Z,14.70
2018-11-29T22:33:43.566Z,13.60
2018-11-29T22:36:14.299Z,14.37
2018-11-29T22:38:44.478Z,13.10
2018-11-29T22:41:14.422Z,16.23
2018-11-29T22:43:44.685Z,14.97
2018-11-29T22:46:14.958Z,16.50
2018-11-29T22:48:45.331Z,16.63
2018-11-29T22:51:15.638Z,15.30
2018-11-29T22:53:45.877Z,15.67
2018-11-29T22:56:16.174Z,14.57
2018-11-29T22:58:46.441Z,15.10
2018-11-29T23:01:21.851Z,16.30
2018-11-29T23:03:52.130Z,15.13
2018-11-29T23:06:22.413Z,14.70
2018-11-29T23:08:52.704Z,13.10
2018-11-29T23:11:22.989Z,14.57
2018-11-29T23:13:53.256Z,14.40
2018-11-29T23:16:23.535Z,15.37
2018-11-29T23:18:53.787Z,14.10
2018-11-29T23:21:24.059Z,14.97
2018-11-29T23:23:54.316Z,12.73
2018-11-29T23:26:24.578Z,14.80
2018-11-29T23:28:54.833Z,14.47
2018-11-29T23:31:25.122Z,14.17
2018-11-29T23:33:55.376Z,12.93
2018-11-29T23:36:25.718Z,15.10
2018-11-29T23:38:56.034Z,14.20
2018-11-29T23:41:26.322Z,15.60
2018-11-29T23:43:56.555Z,14.20
2018-11-29T23:46:26.791Z,15.47
2018-11-29T23:48:57.035Z,15.90
2018-11-29T23:51:27.376Z,13.70
2018-11-29T23:53:57.631Z,14.53
2018-11-29T23:56:27.946Z,15.20
2018-11-29T23:58:58.198Z,15.90
